SAVCSAZN

Guest
Details From SAVC - Comodoro Rivadavia
To SAZN - Presidente Peron
Flight Number -
Tags Generated
Created
Modified
Stats Distance 412 nm / 764 km
Max Altitude 0 ft / 0 m
Waypoints 3
Social Downloads 0
Likes 0
Share VATSIM

Download

Looking for another format? Having issues loading an existing format? Contact us
Advertisement - Login to hide

Notes

Generated

Route

SAVC NEU SAZN

ID Type Via Altitude Latitude Longitude Leg Dist Tot Dist Heading (true) Name
O SAVC APT - 0 ft / 0 m -45.78778˚ -67.48344˚ - 0 nm - -
NEU VOR - 0 ft / 0 m -38.95028˚ -68.15472˚ 411 nm 411 nm 356° / 356° NEUQUEN VOR-DME
O SAZN APT - 0 ft / 0 m -38.94896˚ -68.17053˚ 0 nm 412 nm 276° / 276° -

Altitude Profile

Advertisement - Login to hide

Weather


0- 5 10 15 20 25 30 35+ Temperature / ° C

Clouds and Precipitation
Forecast for 2018-05-21 12:00 UTC. Updated 2 hours ago

Ground ~20,000 ft ~40,000 ft Winds

SAVC

Details ICAO SAVC (CRD)
Name COMODORO RIVADAVIA
Region Argentina
Timezone America/Argentina/Catamarca (UTC-3.0)
Stats Elevation 190 ft / 58 m (AMSL)
Location -45.785349° -67.465561°
Runways 1
Magnetic Variation 6.257° E

METAR

SAVC 211300Z 27017G29KT CAVOK 09/02 Q1013

Decode

TAF

TAF TAF SAVC 211100Z 2112/2212 27025G35KT CAVOK TX15/2118Z TN07/2112Z BECMG 2116/2118 FEW030 SCT090 BECMG 2206/2208 27015KT

Decode

Departure Runways

ID Width Length Bearing (true) Bearing (mag) Surface Threshold Offset Overrun Length
07 164 ft / 50 m 9,269 ft / 2,825 m 78.97° 72.71° Concrete 0 ft / 0 m 492 ft / 150 m
25 164 ft / 50 m 9,269 ft / 2,825 m 258.95° 252.69° Concrete 0 ft / 0 m 820 ft / 250 m

SAZN

Details ICAO SAZN (NQN)
Name PRESIDENTE PERON
Region Argentina
Timezone America/Argentina/Salta (UTC-3.0)
Stats Elevation 895 ft / 273 m (AMSL)
Location -38.949000° -68.155713°
Runways 1
Magnetic Variation 2.580° E

METAR

SAZN 211200Z 27001KT CAVOK M00/M02 Q1020

Decode

TAF

TAF SAZN 211100Z 2112/2212 27010KT CAVOK TX14/2119Z TN00/2210Z

Decode

Destination Runways

ID Width Length Bearing (true) Bearing (mag) Surface Threshold Offset Overrun Length
08 147 ft / 45 m 8,411 ft / 2,564 m 90.23° 87.65° Asphalt 0 ft / 0 m 680 ft / 207 m
26 147 ft / 45 m 8,411 ft / 2,564 m 270.21° 267.63° Asphalt 0 ft / 0 m 675 ft / 206 m

Approach Navaids

Runway Type Ident Frequency Range Bearing (true) Bearing (mag) Slope Elevation
08 Localiser NE 110.30 MHz 18 nm / 33 km 92.65° 90.07° - 895 ft / 273 m (AMSL)
08 Glidescope NE 110.30 MHz 10 nm / 19 km 90.22° 87.64° 3.00° 896 ft / 273 m (AMSL)

Popular Alternatives